sensor_id;sensor_type;location;lat;lon;timestamp;pressure;altitude;pressure_sealevel;temperature;humidity
3832;BME280;12460;42.662;23.288;2023-03-19T00:03:18;95068.63;;;4.29;52.62
3832;BME280;12460;42.662;23.288;2023-03-19T00:18:23;95060.34;;;4.23;51.56
3832;BME280;12460;42.662;23.288;2023-03-19T00:33:27;95058.13;;;4.10;52.54
3832;BME280;12460;42.662;23.288;2023-03-19T00:48:31;95036.72;;;4.00;52.73
3832;BME280;12460;42.662;23.288;2023-03-19T01:03:37;95029.72;;;3.88;53.71
3832;BME280;12460;42.662;23.288;2023-03-19T01:18:41;95013.09;;;3.77;52.89
3832;BME280;12460;42.662;23.288;2023-03-19T01:33:45;95005.78;;;3.74;52.51
3832;BME280;12460;42.662;23.288;2023-03-19T01:49:13;95015.19;;;3.65;52.13
3832;BME280;12460;42.662;23.288;2023-03-19T02:04:24;95018.47;;;3.64;53.19
3832;BME280;12460;42.662;23.288;2023-03-19T02:34:42;95006.66;;;3.52;52.85
3832;BME280;12460;42.662;23.288;2023-03-19T02:49:47;95021.91;;;3.40;54.17
3832;BME280;12460;42.662;23.288;2023-03-19T03:04:52;95034.34;;;3.28;54.79
3832;BME280;12460;42.662;23.288;2023-03-19T03:19:56;95038.13;;;3.30;55.53
3832;BME280;12460;42.662;23.288;2023-03-19T03:35:01;95044.22;;;3.18;55.17
3832;BME280;12460;42.662;23.288;2023-03-19T03:50:07;95043.50;;;3.06;54.93
3832;BME280;12460;42.662;23.288;2023-03-19T04:05:14;95050.09;;;2.98;55.79
3832;BME280;12460;42.662;23.288;2023-03-19T04:20:18;95053.09;;;2.94;56.15
3832;BME280;12460;42.662;23.288;2023-03-19T04:35:22;95051.84;;;2.95;56.08
3832;BME280;12460;42.662;23.288;2023-03-19T04:50:26;95070.78;;;2.97;56.07
3832;BME280;12460;42.662;23.288;2023-03-19T05:05:32;95062.31;;;3.35;55.34
3832;BME280;12460;42.662;23.288;2023-03-19T05:20:42;95061.94;;;7.80;47.21
3832;BME280;12460;42.662;23.288;2023-03-19T05:35:53;95058.97;;;13.21;35.70
3832;BME280;12460;42.662;23.288;2023-03-19T05:51:22;95055.38;;;13.20;33.66
3832;BME280;12460;42.662;23.288;2023-03-19T06:06:28;95052.41;;;12.14;34.39
3832;BME280;12460;42.662;23.288;2023-03-19T06:21:32;95043.00;;;13.16;32.37
3832;BME280;12460;42.662;23.288;2023-03-19T06:36:38;95068.03;;;14.81;30.03
3832;BME280;12460;42.662;23.288;2023-03-19T06:51:45;95098.78;;;15.84;28.65
3832;BME280;12460;42.662;23.288;2023-03-19T07:06:50;95096.03;;;15.67;28.44
3832;BME280;12460;42.662;23.288;2023-03-19T07:21:53;95092.44;;;16.41;27.59
3832;BME280;12460;42.662;23.288;2023-03-19T07:36:58;95075.28;;;15.64;28.01
3832;BME280;12460;42.662;23.288;2023-03-19T07:52:03;95084.41;;;17.75;26.37
3832;BME280;12460;42.662;23.288;2023-03-19T08:07:08;95077.25;;;17.95;25.45
3832;BME280;12460;42.662;23.288;2023-03-19T08:22:15;95080.38;;;17.19;26.18
3832;BME280;12460;42.662;23.288;2023-03-19T08:37:20;95082.97;;;19.36;24.53
3832;BME280;12460;42.662;23.288;2023-03-19T08:52:25;95054.97;;;19.67;24.43
3832;BME280;12460;42.662;23.288;2023-03-19T09:07:31;95044.66;;;21.32;22.33
3832;BME280;12460;42.662;23.288;2023-03-19T09:22:37;95030.66;;;22.32;21.58
3832;BME280;12460;42.662;23.288;2023-03-19T09:37:41;95010.03;;;22.91;20.99
3832;BME280;12460;42.662;23.288;2023-03-19T09:52:46;95003.09;;;23.41;20.80
3832;BME280;12460;42.662;23.288;2023-03-19T10:08:05;94992.28;;;24.04;20.01
3832;BME280;12460;42.662;23.288;2023-03-19T10:38:30;94942.44;;;24.31;19.66
3832;BME280;12460;42.662;23.288;2023-03-19T10:53:38;94911.63;;;25.04;18.63
3832;BME280;12460;42.662;23.288;2023-03-19T11:08:57;94892.75;;;25.19;19.26
3832;BME280;12460;42.662;23.288;2023-03-19T11:24:03;94860.44;;;24.48;19.78
3832;BME280;12460;42.662;23.288;2023-03-19T12:10:31;94799.94;;;22.93;20.37
3832;BME280;12460;42.662;23.288;2023-03-19T12:26:05;94786.19;;;21.71;21.59
3832;BME280;12460;42.662;23.288;2023-03-19T12:41:23;94782.69;;;20.75;22.52
3832;BME280;12460;42.662;23.288;2023-03-19T13:26:50;94737.25;;;20.54;23.53
3832;BME280;12460;42.662;23.288;2023-03-19T13:42:22;94723.59;;;20.25;24.06
3832;BME280;12460;42.662;23.288;2023-03-19T13:57:34;94709.09;;;18.83;25.53
3832;BME280;12460;42.662;23.288;2023-03-19T14:12:40;94708.88;;;18.79;25.74
3832;BME280;12460;42.662;23.288;2023-03-19T14:27:49;94681.91;;;17.99;26.66
3832;BME280;12460;42.662;23.288;2023-03-19T14:43:13;94687.13;;;18.14;26.58
3832;BME280;12460;42.662;23.288;2023-03-19T14:58:21;94675.59;;;17.78;27.13
3832;BME280;12460;42.662;23.288;2023-03-19T15:28:51;94694.25;;;17.25;28.11
3832;BME280;12460;42.662;23.288;2023-03-19T15:43:57;94689.97;;;16.82;29.37
3832;BME280;12460;42.662;23.288;2023-03-19T15:59:04;94684.50;;;16.53;30.13
3832;BME280;12460;42.662;23.288;2023-03-19T16:14:32;94708.94;;;16.06;30.99
3832;BME280;12460;42.662;23.288;2023-03-19T16:29:41;94703.91;;;15.45;33.12
3832;BME280;12460;42.662;23.288;2023-03-19T16:44:47;94706.50;;;14.74;34.45
3832;BME280;12460;42.662;23.288;2023-03-19T16:59:51;94735.63;;;14.29;36.09
3832;BME280;12460;42.662;23.288;2023-03-19T17:14:56;94736.94;;;13.82;36.88
3832;BME280;12460;42.662;23.288;2023-03-19T17:30:01;94744.31;;;13.41;37.78
3832;BME280;12460;42.662;23.288;2023-03-19T17:45:08;94760.31;;;13.12;37.41
3832;BME280;12460;42.662;23.288;2023-03-19T18:00:17;94767.03;;;12.82;37.71
3832;BME280;12460;42.662;23.288;2023-03-19T18:15:23;94765.84;;;12.51;38.25
3832;BME280;12460;42.662;23.288;2023-03-19T18:30:30;94774.13;;;12.32;38.64
3832;BME280;12460;42.662;23.288;2023-03-19T18:45:38;94807.13;;;12.14;39.43
3832;BME280;12460;42.662;23.288;2023-03-19T19:00:43;94804.66;;;11.93;39.93
3832;BME280;12460;42.662;23.288;2023-03-19T19:15:48;94837.13;;;11.70;41.29
3832;BME280;12460;42.662;23.288;2023-03-19T19:30:53;94830.09;;;11.46;41.68
3832;BME280;12460;42.662;23.288;2023-03-19T19:46:00;94833.03;;;11.16;42.42
3832;BME280;12460;42.662;23.288;2023-03-19T20:01:08;94840.59;;;10.98;42.74
3832;BME280;12460;42.662;23.288;2023-03-19T20:16:21;94839.91;;;10.75;43.89
3832;BME280;12460;42.662;23.288;2023-03-19T20:31:28;94874.41;;;10.61;44.45
3832;BME280;12460;42.662;23.288;2023-03-19T20:46:34;94879.31;;;10.37;44.46
3832;BME280;12460;42.662;23.288;2023-03-19T21:01:39;94886.78;;;10.27;44.95
3832;BME280;12460;42.662;23.288;2023-03-19T21:16:44;94889.34;;;10.03;46.26
3832;BME280;12460;42.662;23.288;2023-03-19T21:31:49;94882.34;;;9.66;46.71
3832;BME280;12460;42.662;23.288;2023-03-19T21:46:58;94886.25;;;9.63;46.79
3832;BME280;12460;42.662;23.288;2023-03-19T22:17:28;94875.06;;;9.20;47.41
3832;BME280;12460;42.662;23.288;2023-03-19T22:32:33;94876.13;;;9.09;48.39
3832;BME280;12460;42.662;23.288;2023-03-19T22:47:37;94879.94;;;8.91;48.59
3832;BME280;12460;42.662;23.288;2023-03-19T23:02:44;94875.34;;;8.73;49.15
3832;BME280;12460;42.662;23.288;2023-03-19T23:17:49;94882.56;;;8.61;49.73
3832;BME280;12460;42.662;23.288;2023-03-19T23:33:00;94877.16;;;8.34;50.46
